sensor_id;sensor_type;location;lat;lon;timestamp;P1;durP1;ratioP1;P2;durP2;ratioP2
54452;SDS011;40363;52.270;10.546;2023-07-30T00:00:55;2.20;;;1.85;;
54452;SDS011;40363;52.270;10.546;2023-07-30T00:03:21;3.53;;;1.50;;
54452;SDS011;40363;52.270;10.546;2023-07-30T00:05:51;1.92;;;1.50;;
54452;SDS011;40363;52.270;10.546;2023-07-30T00:08:19;1.95;;;1.73;;
54452;SDS011;40363;52.270;10.546;2023-07-30T00:10:45;2.33;;;1.67;;
54452;SDS011;40363;52.270;10.546;2023-07-30T00:13:13;2.88;;;1.92;;
54452;SDS011;40363;52.270;10.546;2023-07-30T00:15:40;2.40;;;1.90;;
54452;SDS011;40363;52.270;10.546;2023-07-30T00:18:07;3.33;;;2.28;;
54452;SDS011;40363;52.270;10.546;2023-07-30T00:20:34;2.40;;;1.52;;
54452;SDS011;40363;52.270;10.546;2023-07-30T00:23:01;2.38;;;1.63;;
54452;SDS011;40363;52.270;10.546;2023-07-30T00:25:27;3.15;;;1.58;;
54452;SDS011;40363;52.270;10.546;2023-07-30T00:27:54;2.50;;;1.65;;
54452;SDS011;40363;52.270;10.546;2023-07-30T00:30:22;5.07;;;2.13;;
54452;SDS011;40363;52.270;10.546;2023-07-30T00:32:49;2.90;;;1.55;;
54452;SDS011;40363;52.270;10.546;2023-07-30T00:35:16;2.53;;;1.50;;
54452;SDS011;40363;52.270;10.546;2023-07-30T00:37:42;1.70;;;1.48;;
54452;SDS011;40363;52.270;10.546;2023-07-30T00:40:09;3.60;;;2.00;;
54452;SDS011;40363;52.270;10.546;2023-07-30T00:42:37;1.75;;;1.38;;
54452;SDS011;40363;52.270;10.546;2023-07-30T00:45:03;3.40;;;2.10;;
54452;SDS011;40363;52.270;10.546;2023-07-30T00:47:32;2.22;;;1.40;;
54452;SDS011;40363;52.270;10.546;2023-07-30T00:49:59;2.05;;;1.45;;
54452;SDS011;40363;52.270;10.546;2023-07-30T00:52:27;3.83;;;1.85;;
54452;SDS011;40363;52.270;10.546;2023-07-30T00:54:54;2.65;;;1.45;;
54452;SDS011;40363;52.270;10.546;2023-07-30T00:57:23;5.28;;;2.28;;
54452;SDS011;40363;52.270;10.546;2023-07-30T00:59:50;2.97;;;1.65;;
54452;SDS011;40363;52.270;10.546;2023-07-30T01:02:18;3.60;;;1.52;;
54452;SDS011;40363;52.270;10.546;2023-07-30T01:04:45;2.45;;;1.70;;
54452;SDS011;40363;52.270;10.546;2023-07-30T01:07:12;3.05;;;1.35;;
54452;SDS011;40363;52.270;10.546;2023-07-30T01:09:39;3.15;;;1.50;;
54452;SDS011;40363;52.270;10.546;2023-07-30T01:12:06;1.83;;;1.50;;
54452;SDS011;40363;52.270;10.546;2023-07-30T01:14:34;3.30;;;1.80;;
54452;SDS011;40363;52.270;10.546;2023-07-30T01:17:03;2.28;;;1.40;;
54452;SDS011;40363;52.270;10.546;2023-07-30T01:19:30;3.75;;;1.63;;
54452;SDS011;40363;52.270;10.546;2023-07-30T01:21:59;2.40;;;1.83;;
54452;SDS011;40363;52.270;10.546;2023-07-30T01:24:25;3.92;;;1.65;;
54452;SDS011;40363;52.270;10.546;2023-07-30T01:26:55;2.22;;;1.60;;
54452;SDS011;40363;52.270;10.546;2023-07-30T01:29:27;1.70;;;1.30;;
54452;SDS011;40363;52.270;10.546;2023-07-30T01:32:10;3.28;;;2.03;;
54452;SDS011;40363;52.270;10.546;2023-07-30T01:34:39;1.88;;;1.42;;
54452;SDS011;40363;52.270;10.546;2023-07-30T01:37:09;2.63;;;1.63;;
54452;SDS011;40363;52.270;10.546;2023-07-30T01:39:38;2.72;;;1.80;;
54452;SDS011;40363;52.270;10.546;2023-07-30T01:42:06;1.98;;;1.13;;
54452;SDS011;40363;52.270;10.546;2023-07-30T01:44:33;3.17;;;1.35;;
54452;SDS011;40363;52.270;10.546;2023-07-30T01:47:00;4.05;;;1.65;;
54452;SDS011;40363;52.270;10.546;2023-07-30T01:49:26;2.22;;;1.42;;
54452;SDS011;40363;52.270;10.546;2023-07-30T01:51:53;1.73;;;1.40;;
54452;SDS011;40363;52.270;10.546;2023-07-30T01:54:21;2.03;;;1.30;;
54452;SDS011;40363;52.270;10.546;2023-07-30T01:56:48;1.67;;;1.50;;
54452;SDS011;40363;52.270;10.546;2023-07-30T01:59:14;2.25;;;1.80;;
54452;SDS011;40363;52.270;10.546;2023-07-30T02:01:41;3.67;;;1.98;;
54452;SDS011;40363;52.270;10.546;2023-07-30T02:04:08;2.85;;;1.30;;
54452;SDS011;40363;52.270;10.546;2023-07-30T02:06:35;2.67;;;1.77;;
54452;SDS011;40363;52.270;10.546;2023-07-30T02:09:01;2.00;;;1.60;;
54452;SDS011;40363;52.270;10.546;2023-07-30T02:11:30;1.98;;;1.48;;
54452;SDS011;40363;52.270;10.546;2023-07-30T02:13:56;2.17;;;1.55;;
54452;SDS011;40363;52.270;10.546;2023-07-30T02:16:23;1.67;;;1.30;;
54452;SDS011;40363;52.270;10.546;2023-07-30T02:18:50;2.05;;;1.30;;
54452;SDS011;40363;52.270;10.546;2023-07-30T02:21:16;2.35;;;1.77;;
54452;SDS011;40363;52.270;10.546;2023-07-30T02:23:43;1.50;;;1.25;;
54452;SDS011;40363;52.270;10.546;2023-07-30T02:26:09;3.35;;;1.40;;
54452;SDS011;40363;52.270;10.546;2023-07-30T02:28:38;1.88;;;1.35;;
54452;SDS011;40363;52.270;10.546;2023-07-30T02:31:04;1.92;;;1.17;;
54452;SDS011;40363;52.270;10.546;2023-07-30T02:33:31;1.83;;;1.52;;
54452;SDS011;40363;52.270;10.546;2023-07-30T02:35:57;1.80;;;1.20;;
54452;SDS011;40363;52.270;10.546;2023-07-30T02:38:24;1.55;;;1.15;;
54452;SDS011;40363;52.270;10.546;2023-07-30T02:40:51;2.35;;;1.13;;
54452;SDS011;40363;52.270;10.546;2023-07-30T02:43:17;2.20;;;1.60;;
54452;SDS011;40363;52.270;10.546;2023-07-30T02:45:47;2.45;;;1.60;;
54452;SDS011;40363;52.270;10.546;2023-07-30T02:48:15;2.17;;;1.50;;
54452;SDS011;40363;52.270;10.546;2023-07-30T02:50:41;3.25;;;1.42;;
54452;SDS011;40363;52.270;10.546;2023-07-30T02:53:08;2.42;;;1.65;;
54452;SDS011;40363;52.270;10.546;2023-07-30T02:55:35;3.55;;;1.60;;
54452;SDS011;40363;52.270;10.546;2023-07-30T02:58:01;1.98;;;1.35;;
54452;SDS011;40363;52.270;10.546;2023-07-30T03:00:28;2.38;;;1.30;;
54452;SDS011;40363;52.270;10.546;2023-07-30T03:02:56;2.53;;;1.85;;
54452;SDS011;40363;52.270;10.546;2023-07-30T03:05:22;2.35;;;1.63;;
54452;SDS011;40363;52.270;10.546;2023-07-30T03:07:49;3.15;;;1.50;;
54452;SDS011;40363;52.270;10.546;2023-07-30T03:10:16;3.17;;;1.75;;
54452;SDS011;40363;52.270;10.546;2023-07-30T03:12:42;2.25;;;1.45;;
54452;SDS011;40363;52.270;10.546;2023-07-30T03:15:09;9.63;;;2.03;;
54452;SDS011;40363;52.270;10.546;2023-07-30T03:17:36;3.25;;;1.67;;
54452;SDS011;40363;52.270;10.546;2023-07-30T03:20:04;2.67;;;1.58;;
54452;SDS011;40363;52.270;10.546;2023-07-30T03:22:32;3.13;;;1.90;;
54452;SDS011;40363;52.270;10.546;2023-07-30T03:24:58;2.70;;;1.40;;
54452;SDS011;40363;52.270;10.546;2023-07-30T03:27:25;3.78;;;1.75;;
54452;SDS011;40363;52.270;10.546;2023-07-30T03:29:52;3.75;;;1.80;;
54452;SDS011;40363;52.270;10.546;2023-07-30T03:32:18;2.75;;;1.38;;
54452;SDS011;40363;52.270;10.546;2023-07-30T03:34:45;2.65;;;1.50;;
54452;SDS011;40363;52.270;10.546;2023-07-30T03:37:13;1.55;;;1.35;;
54452;SDS011;40363;52.270;10.546;2023-07-30T03:39:39;2.20;;;1.73;;
54452;SDS011;40363;52.270;10.546;2023-07-30T03:42:06;2.33;;;1.55;;
54452;SDS011;40363;52.270;10.546;2023-07-30T03:44:33;3.05;;;1.70;;
54452;SDS011;40363;52.270;10.546;2023-07-30T03:46:59;1.90;;;1.25;;
54452;SDS011;40363;52.270;10.546;2023-07-30T03:49:26;7.05;;;2.00;;
54452;SDS011;40363;52.270;10.546;2023-07-30T03:51:53;4.43;;;1.70;;
54452;SDS011;40363;52.270;10.546;2023-07-30T03:54:21;3.03;;;1.60;;
54452;SDS011;40363;52.270;10.546;2023-07-30T03:56:47;3.20;;;1.48;;
54452;SDS011;40363;52.270;10.546;2023-07-30T03:59:14;2.60;;;1.77;;
54452;SDS011;40363;52.270;10.546;2023-07-30T04:01:41;3.40;;;1.95;;
54452;SDS011;40363;52.270;10.546;2023-07-30T04:04:07;4.40;;;1.70;;
54452;SDS011;40363;52.270;10.546;2023-07-30T04:06:34;4.95;;;1.83;;
54452;SDS011;40363;52.270;10.546;2023-07-30T04:09:01;6.13;;;2.40;;
54452;SDS011;40363;52.270;10.546;2023-07-30T04:11:29;5.35;;;1.83;;
54452;SDS011;40363;52.270;10.546;2023-07-30T04:13:56;3.60;;;2.00;;
54452;SDS011;40363;52.270;10.546;2023-07-30T04:16:23;4.82;;;1.60;;
54452;SDS011;40363;52.270;10.546;2023-07-30T04:18:49;2.97;;;2.13;;
54452;SDS011;40363;52.270;10.546;2023-07-30T04:21:16;3.05;;;1.75;;
54452;SDS011;40363;52.270;10.546;2023-07-30T04:23:42;4.53;;;1.55;;
54452;SDS011;40363;52.270;10.546;2023-07-30T04:26:09;2.15;;;1.67;;
54452;SDS011;40363;52.270;10.546;2023-07-30T04:28:37;2.40;;;1.25;;
54452;SDS011;40363;52.270;10.546;2023-07-30T04:31:03;4.47;;;2.38;;
54452;SDS011;40363;52.270;10.546;2023-07-30T04:33:30;4.20;;;2.13;;
54452;SDS011;40363;52.270;10.546;2023-07-30T04:35:57;2.40;;;1.50;;
54452;SDS011;40363;52.270;10.546;2023-07-30T04:38:24;2.35;;;1.52;;
54452;SDS011;40363;52.270;10.546;2023-07-30T04:40:51;4.82;;;2.08;;
54452;SDS011;40363;52.270;10.546;2023-07-30T04:43:29;2.85;;;1.58;;
54452;SDS011;40363;52.270;10.546;2023-07-30T04:45:58;3.03;;;1.60;;
54452;SDS011;40363;52.270;10.546;2023-07-30T04:48:25;3.42;;;1.77;;
54452;SDS011;40363;52.270;10.546;2023-07-30T04:50:52;3.72;;;1.85;;
54452;SDS011;40363;52.270;10.546;2023-07-30T04:53:19;3.33;;;1.50;;
54452;SDS011;40363;52.270;10.546;2023-07-30T04:55:46;4.32;;;1.92;;
54452;SDS011;40363;52.270;10.546;2023-07-30T04:58:13;3.60;;;1.55;;
54452;SDS011;40363;52.270;10.546;2023-07-30T05:00:40;2.65;;;1.48;;
54452;SDS011;40363;52.270;10.546;2023-07-30T05:03:08;4.25;;;1.90;;
54452;SDS011;40363;52.270;10.546;2023-07-30T05:05:36;4.13;;;1.63;;
54452;SDS011;40363;52.270;10.546;2023-07-30T05:08:05;4.35;;;1.98;;
54452;SDS011;40363;52.270;10.546;2023-07-30T05:10:32;1.70;;;1.33;;
54452;SDS011;40363;52.270;10.546;2023-07-30T05:12:58;3.67;;;1.80;;
54452;SDS011;40363;52.270;10.546;2023-07-30T05:15:25;3.30;;;1.80;;
54452;SDS011;40363;52.270;10.546;2023-07-30T05:17:52;6.35;;;2.00;;
54452;SDS011;40363;52.270;10.546;2023-07-30T05:20:21;4.90;;;2.33;;
54452;SDS011;40363;52.270;10.546;2023-07-30T05:22:48;5.50;;;1.77;;
54452;SDS011;40363;52.270;10.546;2023-07-30T05:25:15;5.63;;;1.75;;
54452;SDS011;40363;52.270;10.546;2023-07-30T05:27:42;3.30;;;1.60;;
54452;SDS011;40363;52.270;10.546;2023-07-30T05:30:09;3.15;;;1.73;;
54452;SDS011;40363;52.270;10.546;2023-07-30T05:32:36;6.30;;;2.40;;
54452;SDS011;40363;52.270;10.546;2023-07-30T05:35:03;4.45;;;1.63;;
54452;SDS011;40363;52.270;10.546;2023-07-30T05:37:32;6.32;;;1.77;;
54452;SDS011;40363;52.270;10.546;2023-07-30T05:39:59;3.95;;;2.25;;
54452;SDS011;40363;52.270;10.546;2023-07-30T05:42:25;3.70;;;1.60;;
54452;SDS011;40363;52.270;10.546;2023-07-30T05:44:52;3.03;;;1.80;;
54452;SDS011;40363;52.270;10.546;2023-07-30T05:47:18;3.50;;;2.05;;
54452;SDS011;40363;52.270;10.546;2023-07-30T05:49:45;4.18;;;1.60;;
54452;SDS011;40363;52.270;10.546;2023-07-30T05:52:12;9.25;;;2.10;;
54452;SDS011;40363;52.270;10.546;2023-07-30T05:54:40;5.20;;;2.20;;
54452;SDS011;40363;52.270;10.546;2023-07-30T05:57:07;5.07;;;2.40;;
54452;SDS011;40363;52.270;10.546;2023-07-30T05:59:33;4.95;;;2.15;;
54452;SDS011;40363;52.270;10.546;2023-07-30T06:02:01;6.13;;;1.90;;
54452;SDS011;40363;52.270;10.546;2023-07-30T06:04:29;5.70;;;2.20;;
54452;SDS011;40363;52.270;10.546;2023-07-30T06:06:56;5.35;;;1.70;;
54452;SDS011;40363;52.270;10.546;2023-07-30T06:09:24;4.15;;;2.20;;
54452;SDS011;40363;52.270;10.546;2023-07-30T06:11:52;6.82;;;2.20;;
54452;SDS011;40363;52.270;10.546;2023-07-30T06:14:18;5.68;;;2.42;;
54452;SDS011;40363;52.270;10.546;2023-07-30T06:16:45;5.82;;;2.30;;
54452;SDS011;40363;52.270;10.546;2023-07-30T06:19:12;6.47;;;3.00;;
54452;SDS011;40363;52.270;10.546;2023-07-30T06:21:38;6.03;;;3.08;;
54452;SDS011;40363;52.270;10.546;2023-07-30T06:24:05;5.78;;;2.90;;
54452;SDS011;40363;52.270;10.546;2023-07-30T06:26:31;5.22;;;2.92;;
54452;SDS011;40363;52.270;10.546;2023-07-30T06:28:59;6.75;;;2.83;;
54452;SDS011;40363;52.270;10.546;2023-07-30T06:31:26;7.10;;;3.53;;
54452;SDS011;40363;52.270;10.546;2023-07-30T06:33:53;5.82;;;3.60;;
54452;SDS011;40363;52.270;10.546;2023-07-30T06:36:19;5.57;;;2.50;;
54452;SDS011;40363;52.270;10.546;2023-07-30T06:38:46;5.63;;;2.88;;
54452;SDS011;40363;52.270;10.546;2023-07-30T06:41:13;4.90;;;2.42;;
54452;SDS011;40363;52.270;10.546;2023-07-30T06:43:40;5.30;;;2.83;;
54452;SDS011;40363;52.270;10.546;2023-07-30T06:46:08;7.97;;;3.60;;
54452;SDS011;40363;52.270;10.546;2023-07-30T06:48:34;5.25;;;2.97;;
54452;SDS011;40363;52.270;10.546;2023-07-30T06:51:01;3.47;;;2.40;;
54452;SDS011;40363;52.270;10.546;2023-07-30T06:53:27;4.93;;;3.47;;
54452;SDS011;40363;52.270;10.546;2023-07-30T06:55:54;7.00;;;3.03;;
54452;SDS011;40363;52.270;10.546;2023-07-30T06:58:20;6.53;;;3.22;;
54452;SDS011;40363;52.270;10.546;2023-07-30T07:00:47;6.78;;;2.95;;
54452;SDS011;40363;52.270;10.546;2023-07-30T07:03:15;7.68;;;2.85;;
54452;SDS011;40363;52.270;10.546;2023-07-30T07:05:41;7.50;;;3.17;;
54452;SDS011;40363;52.270;10.546;2023-07-30T07:08:08;4.97;;;2.95;;
54452;SDS011;40363;52.270;10.546;2023-07-30T07:10:35;5.22;;;2.63;;
54452;SDS011;40363;52.270;10.546;2023-07-30T07:13:02;3.00;;;2.30;;
54452;SDS011;40363;52.270;10.546;2023-07-30T07:15:28;4.78;;;2.65;;
54452;SDS011;40363;52.270;10.546;2023-07-30T07:17:55;4.50;;;2.40;;
54452;SDS011;40363;52.270;10.546;2023-07-30T07:20:23;5.80;;;2.65;;
54452;SDS011;40363;52.270;10.546;2023-07-30T07:22:50;6.82;;;2.30;;
54452;SDS011;40363;52.270;10.546;2023-07-30T07:25:17;3.28;;;1.70;;
54452;SDS011;40363;52.270;10.546;2023-07-30T07:27:46;4.63;;;2.20;;
54452;SDS011;40363;52.270;10.546;2023-07-30T07:30:12;4.05;;;1.90;;
54452;SDS011;40363;52.270;10.546;2023-07-30T07:32:39;4.45;;;1.63;;
54452;SDS011;40363;52.270;10.546;2023-07-30T07:35:06;4.70;;;1.45;;
54452;SDS011;40363;52.270;10.546;2023-07-30T07:37:35;4.20;;;1.80;;
54452;SDS011;40363;52.270;10.546;2023-07-30T07:40:01;4.15;;;1.33;;
54452;SDS011;40363;52.270;10.546;2023-07-30T07:42:29;5.75;;;1.30;;
54452;SDS011;40363;52.270;10.546;2023-07-30T07:44:55;2.17;;;1.38;;
54452;SDS011;40363;52.270;10.546;2023-07-30T07:47:22;4.78;;;1.42;;
54452;SDS011;40363;52.270;10.546;2023-07-30T07:49:49;3.50;;;1.38;;
54452;SDS011;40363;52.270;10.546;2023-07-30T07:52:15;3.85;;;1.33;;
54452;SDS011;40363;52.270;10.546;2023-07-30T07:54:43;3.75;;;1.33;;
54452;SDS011;40363;52.270;10.546;2023-07-30T07:57:10;2.55;;;1.10;;
54452;SDS011;40363;52.270;10.546;2023-07-30T07:59:37;8.55;;;1.42;;
54452;SDS011;40363;52.270;10.546;2023-07-30T08:02:04;3.25;;;1.60;;
54452;SDS011;40363;52.270;10.546;2023-07-30T08:04:31;3.22;;;1.25;;
54452;SDS011;40363;52.270;10.546;2023-07-30T08:06:58;2.72;;;1.30;;
54452;SDS011;40363;52.270;10.546;2023-07-30T08:09:28;3.30;;;1.10;;
54452;SDS011;40363;52.270;10.546;2023-07-30T08:11:56;3.00;;;0.90;;
54452;SDS011;40363;52.270;10.546;2023-07-30T08:14:23;3.55;;;1.00;;
54452;SDS011;40363;52.270;10.546;2023-07-30T08:16:49;3.00;;;1.08;;
54452;SDS011;40363;52.270;10.546;2023-07-30T08:19:16;4.22;;;1.23;;
54452;SDS011;40363;52.270;10.546;2023-07-30T08:21:43;3.20;;;1.00;;
54452;SDS011;40363;52.270;10.546;2023-07-30T08:24:09;3.40;;;1.20;;
54452;SDS011;40363;52.270;10.546;2023-07-30T08:26:36;1.73;;;1.08;;
54452;SDS011;40363;52.270;10.546;2023-07-30T08:29:04;3.63;;;1.20;;
54452;SDS011;40363;52.270;10.546;2023-07-30T08:31:33;2.78;;;1.27;;
54452;SDS011;40363;52.270;10.546;2023-07-30T08:34:00;1.77;;;1.00;;
54452;SDS011;40363;52.270;10.546;2023-07-30T08:36:26;2.70;;;1.10;;
54452;SDS011;40363;52.270;10.546;2023-07-30T08:38:53;2.13;;;1.17;;
54452;SDS011;40363;52.270;10.546;2023-07-30T08:41:19;3.35;;;1.10;;
54452;SDS011;40363;52.270;10.546;2023-07-30T08:43:46;3.97;;;1.55;;
54452;SDS011;40363;52.270;10.546;2023-07-30T08:46:15;3.20;;;1.27;;
54452;SDS011;40363;52.270;10.546;2023-07-30T08:48:42;3.10;;;1.50;;
54452;SDS011;40363;52.270;10.546;2023-07-30T08:51:08;2.30;;;1.00;;
54452;SDS011;40363;52.270;10.546;2023-07-30T08:53:37;3.35;;;1.17;;
54452;SDS011;40363;52.270;10.546;2023-07-30T08:56:05;2.45;;;1.20;;
54452;SDS011;40363;52.270;10.546;2023-07-30T08:58:32;3.28;;;1.30;;
54452;SDS011;40363;52.270;10.546;2023-07-30T09:01:01;2.05;;;1.10;;
54452;SDS011;40363;52.270;10.546;2023-07-30T09:03:36;5.17;;;1.43;;
54452;SDS011;40363;52.270;10.546;2023-07-30T09:06:04;3.80;;;1.45;;
54452;SDS011;40363;52.270;10.546;2023-07-30T09:08:31;4.35;;;1.40;;
54452;SDS011;40363;52.270;10.546;2023-07-30T09:11:02;1.77;;;1.27;;
54452;SDS011;40363;52.270;10.546;2023-07-30T09:13:36;3.00;;;1.15;;
54452;SDS011;40363;52.270;10.546;2023-07-30T09:16:07;3.00;;;1.75;;
54452;SDS011;40363;52.270;10.546;2023-07-30T09:18:40;3.30;;;1.77;;
54452;SDS011;40363;52.270;10.546;2023-07-30T09:21:07;2.90;;;1.33;;
54452;SDS011;40363;52.270;10.546;2023-07-30T09:23:39;6.22;;;1.60;;
54452;SDS011;40363;52.270;10.546;2023-07-30T09:26:06;3.67;;;1.60;;
54452;SDS011;40363;52.270;10.546;2023-07-30T09:28:33;2.60;;;1.10;;
54452;SDS011;40363;52.270;10.546;2023-07-30T09:31:00;4.18;;;1.52;;
54452;SDS011;40363;52.270;10.546;2023-07-30T09:33:27;2.80;;;1.17;;
54452;SDS011;40363;52.270;10.546;2023-07-30T09:35:55;3.60;;;1.27;;
54452;SDS011;40363;52.270;10.546;2023-07-30T09:38:22;3.67;;;1.33;;
54452;SDS011;40363;52.270;10.546;2023-07-30T09:40:50;4.80;;;1.17;;
54452;SDS011;40363;52.270;10.546;2023-07-30T09:43:18;1.92;;;1.20;;
54452;SDS011;40363;52.270;10.546;2023-07-30T09:45:45;3.05;;;1.40;;
54452;SDS011;40363;52.270;10.546;2023-07-30T09:48:12;2.20;;;1.27;;
54452;SDS011;40363;52.270;10.546;2023-07-30T09:50:41;2.25;;;1.00;;
54452;SDS011;40363;52.270;10.546;2023-07-30T09:53:09;2.80;;;1.20;;
54452;SDS011;40363;52.270;10.546;2023-07-30T09:55:38;1.13;;;1.00;;
54452;SDS011;40363;52.270;10.546;2023-07-30T09:58:04;1.90;;;0.93;;
54452;SDS011;40363;52.270;10.546;2023-07-30T10:00:35;3.15;;;1.45;;
54452;SDS011;40363;52.270;10.546;2023-07-30T10:03:02;3.53;;;1.00;;
54452;SDS011;40363;52.270;10.546;2023-07-30T10:05:32;3.38;;;0.98;;
54452;SDS011;40363;52.270;10.546;2023-07-30T10:08:00;2.75;;;1.30;;
54452;SDS011;40363;52.270;10.546;2023-07-30T10:10:31;3.80;;;1.10;;
54452;SDS011;40363;52.270;10.546;2023-07-30T10:12:59;1.90;;;0.80;;
54452;SDS011;40363;52.270;10.546;2023-07-30T10:15:29;1.23;;;0.65;;
54452;SDS011;40363;52.270;10.546;2023-07-30T10:17:59;2.83;;;1.20;;
54452;SDS011;40363;52.270;10.546;2023-07-30T10:20:27;4.57;;;0.80;;
54452;SDS011;40363;52.270;10.546;2023-07-30T10:22:55;5.10;;;1.23;;
54452;SDS011;40363;52.270;10.546;2023-07-30T10:25:26;3.60;;;1.38;;
54452;SDS011;40363;52.270;10.546;2023-07-30T10:27:56;3.42;;;0.90;;
54452;SDS011;40363;52.270;10.546;2023-07-30T10:30:29;3.13;;;1.08;;
54452;SDS011;40363;52.270;10.546;2023-07-30T10:32:58;4.68;;;1.42;;
54452;SDS011;40363;52.270;10.546;2023-07-30T10:35:40;3.30;;;1.30;;
54452;SDS011;40363;52.270;10.546;2023-07-30T10:38:15;4.05;;;1.10;;
54452;SDS011;40363;52.270;10.546;2023-07-30T10:43:28;1.88;;;0.90;;
54452;SDS011;40363;52.270;10.546;2023-07-30T10:45:55;4.25;;;1.10;;
54452;SDS011;40363;52.270;10.546;2023-07-30T10:48:29;3.83;;;1.13;;
54452;SDS011;40363;52.270;10.546;2023-07-30T10:53:23;2.67;;;1.70;;
54452;SDS011;40363;52.270;10.546;2023-07-30T10:55:50;3.80;;;1.63;;
54452;SDS011;40363;52.270;10.546;2023-07-30T10:58:17;4.53;;;1.25;;
54452;SDS011;40363;52.270;10.546;2023-07-30T11:00:46;2.85;;;1.10;;
54452;SDS011;40363;52.270;10.546;2023-07-30T11:03:14;3.28;;;1.30;;
54452;SDS011;40363;52.270;10.546;2023-07-30T11:05:41;4.75;;;1.15;;
54452;SDS011;40363;52.270;10.546;2023-07-30T11:08:07;4.72;;;2.83;;
54452;SDS011;40363;52.270;10.546;2023-07-30T11:10:41;3.72;;;1.17;;
54452;SDS011;40363;52.270;10.546;2023-07-30T11:13:08;3.30;;;1.30;;
54452;SDS011;40363;52.270;10.546;2023-07-30T11:15:40;2.83;;;1.17;;
54452;SDS011;40363;52.270;10.546;2023-07-30T11:18:09;2.60;;;1.40;;
54452;SDS011;40363;52.270;10.546;2023-07-30T11:20:36;4.82;;;1.38;;
54452;SDS011;40363;52.270;10.546;2023-07-30T11:23:03;5.18;;;1.60;;
54452;SDS011;40363;52.270;10.546;2023-07-30T11:25:45;4.88;;;1.50;;
54452;SDS011;40363;52.270;10.546;2023-07-30T11:28:13;4.25;;;1.48;;
54452;SDS011;40363;52.270;10.546;2023-07-30T11:30:40;3.50;;;1.40;;
54452;SDS011;40363;52.270;10.546;2023-07-30T11:33:06;4.68;;;1.52;;
54452;SDS011;40363;52.270;10.546;2023-07-30T11:35:34;5.05;;;1.25;;
54452;SDS011;40363;52.270;10.546;2023-07-30T11:38:01;3.53;;;1.50;;
54452;SDS011;40363;52.270;10.546;2023-07-30T11:40:28;2.33;;;1.40;;
54452;SDS011;40363;52.270;10.546;2023-07-30T11:42:55;7.07;;;2.38;;
54452;SDS011;40363;52.270;10.546;2023-07-30T11:45:22;6.75;;;2.38;;
54452;SDS011;40363;52.270;10.546;2023-07-30T11:47:51;4.70;;;1.70;;
54452;SDS011;40363;52.270;10.546;2023-07-30T11:50:18;6.53;;;2.30;;
54452;SDS011;40363;52.270;10.546;2023-07-30T11:52:53;4.68;;;1.90;;
54452;SDS011;40363;52.270;10.546;2023-07-30T11:55:20;4.40;;;1.52;;
54452;SDS011;40363;52.270;10.546;2023-07-30T11:57:49;4.53;;;2.10;;
54452;SDS011;40363;52.270;10.546;2023-07-30T12:00:16;3.58;;;2.35;;
54452;SDS011;40363;52.270;10.546;2023-07-30T12:02:46;5.57;;;1.58;;
54452;SDS011;40363;52.270;10.546;2023-07-30T12:05:13;3.58;;;1.30;;
54452;SDS011;40363;52.270;10.546;2023-07-30T12:07:42;4.20;;;1.83;;
54452;SDS011;40363;52.270;10.546;2023-07-30T12:10:15;4.50;;;1.40;;
54452;SDS011;40363;52.270;10.546;2023-07-30T12:12:44;2.25;;;1.33;;
54452;SDS011;40363;52.270;10.546;2023-07-30T12:15:11;5.70;;;1.30;;
54452;SDS011;40363;52.270;10.546;2023-07-30T12:17:39;3.08;;;1.30;;
54452;SDS011;40363;52.270;10.546;2023-07-30T12:20:05;4.20;;;1.55;;
54452;SDS011;40363;52.270;10.546;2023-07-30T12:22:33;3.13;;;1.33;;
54452;SDS011;40363;52.270;10.546;2023-07-30T12:25:00;3.40;;;1.40;;
54452;SDS011;40363;52.270;10.546;2023-07-30T12:27:29;7.18;;;1.85;;
54452;SDS011;40363;52.270;10.546;2023-07-30T12:29:55;4.97;;;1.60;;
54452;SDS011;40363;52.270;10.546;2023-07-30T12:32:22;5.80;;;1.80;;
54452;SDS011;40363;52.270;10.546;2023-07-30T12:34:49;3.67;;;1.55;;
54452;SDS011;40363;52.270;10.546;2023-07-30T12:37:16;3.00;;;1.23;;
54452;SDS011;40363;52.270;10.546;2023-07-30T12:39:42;6.13;;;1.80;;
54452;SDS011;40363;52.270;10.546;2023-07-30T12:42:09;1.90;;;1.10;;
54452;SDS011;40363;52.270;10.546;2023-07-30T12:44:37;5.00;;;1.85;;
54452;SDS011;40363;52.270;10.546;2023-07-30T12:47:04;2.20;;;1.40;;
54452;SDS011;40363;52.270;10.546;2023-07-30T12:49:31;7.72;;;1.65;;
54452;SDS011;40363;52.270;10.546;2023-07-30T12:51:57;5.38;;;1.45;;
54452;SDS011;40363;52.270;10.546;2023-07-30T12:54:24;5.15;;;1.25;;
54452;SDS011;40363;52.270;10.546;2023-07-30T12:56:51;6.75;;;1.83;;
54452;SDS011;40363;52.270;10.546;2023-07-30T12:59:17;3.83;;;1.33;;
54452;SDS011;40363;52.270;10.546;2023-07-30T13:01:45;2.90;;;1.30;;
54452;SDS011;40363;52.270;10.546;2023-07-30T13:04:12;4.20;;;1.60;;
54452;SDS011;40363;52.270;10.546;2023-07-30T13:06:39;5.10;;;1.50;;
54452;SDS011;40363;52.270;10.546;2023-07-30T13:09:05;3.35;;;1.50;;
54452;SDS011;40363;52.270;10.546;2023-07-30T13:11:32;3.38;;;1.50;;
54452;SDS011;40363;52.270;10.546;2023-07-30T13:13:59;6.55;;;1.85;;
54452;SDS011;40363;52.270;10.546;2023-07-30T13:16:26;5.95;;;2.10;;
54452;SDS011;40363;52.270;10.546;2023-07-30T13:18:54;3.35;;;1.67;;
54452;SDS011;40363;52.270;10.546;2023-07-30T13:21:22;2.70;;;1.80;;
54452;SDS011;40363;52.270;10.546;2023-07-30T13:23:48;6.50;;;2.08;;
54452;SDS011;40363;52.270;10.546;2023-07-30T13:26:15;2.83;;;1.48;;
54452;SDS011;40363;52.270;10.546;2023-07-30T13:28:42;4.13;;;2.42;;
54452;SDS011;40363;52.270;10.546;2023-07-30T13:31:09;5.40;;;1.90;;
54452;SDS011;40363;52.270;10.546;2023-07-30T13:33:36;3.38;;;1.63;;
54452;SDS011;40363;52.270;10.546;2023-07-30T13:36:05;5.43;;;2.00;;
54452;SDS011;40363;52.270;10.546;2023-07-30T13:38:33;6.03;;;1.75;;
54452;SDS011;40363;52.270;10.546;2023-07-30T13:41:00;4.25;;;1.67;;
54452;SDS011;40363;52.270;10.546;2023-07-30T13:43:26;8.27;;;2.22;;
54452;SDS011;40363;52.270;10.546;2023-07-30T13:45:54;2.97;;;1.67;;
54452;SDS011;40363;52.270;10.546;2023-07-30T13:48:22;6.35;;;2.15;;
54452;SDS011;40363;52.270;10.546;2023-07-30T13:50:48;3.20;;;1.83;;
54452;SDS011;40363;52.270;10.546;2023-07-30T13:53:16;4.68;;;1.70;;
54452;SDS011;40363;52.270;10.546;2023-07-30T13:55:43;6.43;;;2.38;;
54452;SDS011;40363;52.270;10.546;2023-07-30T13:58:10;4.30;;;2.20;;
54452;SDS011;40363;52.270;10.546;2023-07-30T14:00:37;4.07;;;2.13;;
54452;SDS011;40363;52.270;10.546;2023-07-30T14:03:05;4.07;;;2.00;;
54452;SDS011;40363;52.270;10.546;2023-07-30T14:05:32;5.07;;;2.40;;
54452;SDS011;40363;52.270;10.546;2023-07-30T14:07:59;3.28;;;2.35;;
54452;SDS011;40363;52.270;10.546;2023-07-30T14:10:27;3.78;;;2.30;;
54452;SDS011;40363;52.270;10.546;2023-07-30T14:12:54;6.63;;;2.95;;
54452;SDS011;40363;52.270;10.546;2023-07-30T14:15:20;4.68;;;2.47;;
54452;SDS011;40363;52.270;10.546;2023-07-30T14:17:47;5.22;;;2.42;;
54452;SDS011;40363;52.270;10.546;2023-07-30T14:20:15;5.25;;;2.65;;
54452;SDS011;40363;52.270;10.546;2023-07-30T14:22:43;6.15;;;2.50;;
54452;SDS011;40363;52.270;10.546;2023-07-30T14:25:09;5.72;;;2.90;;
54452;SDS011;40363;52.270;10.546;2023-07-30T14:27:37;4.85;;;2.28;;
54452;SDS011;40363;52.270;10.546;2023-07-30T14:30:04;4.22;;;2.55;;
54452;SDS011;40363;52.270;10.546;2023-07-30T14:32:32;3.50;;;2.22;;
54452;SDS011;40363;52.270;10.546;2023-07-30T14:34:58;6.53;;;3.10;;
54452;SDS011;40363;52.270;10.546;2023-07-30T14:37:25;5.75;;;2.28;;
54452;SDS011;40363;52.270;10.546;2023-07-30T14:39:52;5.43;;;2.30;;